createdAt,value
2019-02-11T00:04:20.817Z,0
2019-02-11T00:09:23.021Z,0
2019-02-11T00:14:25.427Z,0
2019-02-11T00:19:27.873Z,0
2019-02-11T00:24:30.342Z,0
2019-02-11T00:29:32.809Z,0
2019-02-11T00:34:35.275Z,1
2019-02-11T00:39:37.726Z,1
2019-02-11T00:44:40.234Z,0
2019-02-11T00:49:42.621Z,0
2019-02-11T00:54:45.089Z,0
2019-02-11T00:59:47.596Z,0
2019-02-11T01:04:49.995Z,0
2019-02-11T01:09:52.453Z,0
2019-02-11T01:14:54.908Z,1
2019-02-11T01:19:57.367Z,0
2019-02-11T01:24:59.830Z,1
2019-02-11T01:30:02.401Z,0
2019-02-11T01:35:04.770Z,0
2019-02-11T01:40:07.240Z,0
2019-02-11T01:45:09.657Z,0
2019-02-11T01:50:12.208Z,1
2019-02-11T01:55:14.573Z,1
2019-02-11T02:00:17.119Z,0
2019-02-11T02:05:19.498Z,1
2019-02-11T02:10:21.968Z,0
2019-02-11T02:15:24.382Z,0
2019-02-11T02:20:26.843Z,0
2019-02-11T02:25:29.314Z,1
2019-02-11T02:30:31.770Z,0
2019-02-11T02:35:34.319Z,1
2019-02-11T02:40:36.690Z,0
2019-02-11T02:45:39.131Z,0
2019-02-11T02:50:41.590Z,0
2019-02-11T02:55:44.098Z,0
2019-02-11T03:00:46.573Z,1
2019-02-11T03:05:48.961Z,0
2019-02-11T03:10:51.435Z,0
2019-02-11T03:15:53.896Z,0
2019-02-11T03:20:56.347Z,0
2019-02-11T03:25:58.809Z,0
2019-02-11T03:31:01.372Z,1
2019-02-11T03:36:03.721Z,0
2019-02-11T03:41:06.248Z,0
2019-02-11T03:46:08.710Z,0
2019-02-11T03:51:11.203Z,0
2019-02-11T03:56:13.595Z,0
2019-02-11T04:01:16.154Z,0
2019-02-11T04:06:18.549Z,0
2019-02-11T04:11:21.066Z,0
2019-02-11T04:16:23.481Z,1
2019-02-11T04:21:25.910Z,2
2019-02-11T04:26:28.427Z,2
2019-02-11T04:31:30.829Z,2
2019-02-11T04:36:33.295Z,3
2019-02-11T04:41:35.763Z,2
2019-02-11T04:46:38.239Z,1
2019-02-11T04:51:40.763Z,2
2019-02-11T04:56:43.164Z,2
2019-02-11T05:01:45.656Z,3
2019-02-11T05:06:48.173Z,6
2019-02-11T05:11:50.649Z,2
2019-02-11T05:16:53.115Z,4
2019-02-11T05:21:55.495Z,3
2019-02-11T05:26:57.964Z,2
2019-02-11T05:32:00.481Z,3
2019-02-11T05:37:02.874Z,3
2019-02-11T05:42:05.388Z,6
2019-02-11T05:47:07.845Z,4
2019-02-11T05:52:10.259Z,5
2019-02-11T05:57:12.739Z,8
2019-02-11T06:02:15.179Z,5
2019-02-11T06:07:17.671Z,8
2019-02-11T06:12:20.134Z,4
2019-02-11T06:17:22.572Z,4
2019-02-11T06:22:25.043Z,7
2019-02-11T06:27:27.512Z,4
2019-02-11T06:32:29.979Z,4
2019-02-11T06:37:32.521Z,4
2019-02-11T06:42:34.904Z,7
2019-02-11T06:47:37.350Z,7
2019-02-11T06:52:39.835Z,3
2019-02-11T06:57:42.287Z,4
2019-02-11T07:02:44.788Z,6
2019-02-11T07:07:47.224Z,4
2019-02-11T07:12:49.680Z,9
2019-02-11T07:17:52.130Z,3
2019-02-11T07:22:54.662Z,4
2019-02-11T07:27:57.081Z,3
2019-02-11T07:32:59.529Z,4
2019-02-11T07:38:02.105Z,4
2019-02-11T07:43:04.481Z,3
2019-02-11T07:48:06.904Z,5
2019-02-11T07:53:09.369Z,3
2019-02-11T07:58:11.841Z,2
2019-02-11T08:03:14.287Z,3
2019-02-11T08:08:16.721Z,8
2019-02-11T08:13:19.199Z,4
2019-02-11T08:18:21.647Z,7
2019-02-11T08:23:24.103Z,8
2019-02-11T08:28:26.565Z,5
2019-02-11T08:33:30.443Z,3
2019-02-11T08:38:31.477Z,3
2019-02-11T08:43:34.003Z,3
2019-02-11T08:48:36.417Z,7
2019-02-11T08:53:38.867Z,2
2019-02-11T08:58:41.322Z,4
2019-02-11T09:03:43.752Z,3
2019-02-11T09:08:46.241Z,9
2019-02-11T09:13:48.718Z,6
2019-02-11T09:18:51.120Z,4
2019-02-11T09:23:53.584Z,4
2019-02-11T09:28:56.044Z,4
2019-02-11T09:33:58.496Z,3
2019-02-11T09:39:00.992Z,3
2019-02-11T09:44:03.416Z,3
2019-02-11T09:49:05.871Z,2
2019-02-11T09:54:08.329Z,3
2019-02-11T09:59:10.839Z,4
2019-02-11T10:04:13.250Z,6
2019-02-11T10:09:15.694Z,2
2019-02-11T10:14:18.173Z,3
2019-02-11T10:19:20.624Z,5
2019-02-11T10:24:23.108Z,7
2019-02-11T10:29:25.535Z,5
2019-02-11T10:34:28.005Z,3
2019-02-11T10:39:30.496Z,3
2019-02-11T10:44:32.916Z,3
2019-02-11T10:49:35.361Z,1
2019-02-11T10:54:37.814Z,5
2019-02-11T10:59:40.362Z,3
2019-02-11T11:04:42.798Z,3
2019-02-11T11:09:45.242Z,1
2019-02-11T11:14:47.719Z,3
2019-02-11T11:19:50.141Z,3
2019-02-11T11:24:52.620Z,3
2019-02-11T11:29:55.032Z,3
2019-02-11T11:34:57.493Z,6
2019-02-11T11:39:59.953Z,5
2019-02-11T11:45:02.525Z,2
2019-02-11T11:50:04.864Z,2
2019-02-11T11:55:07.322Z,3
2019-02-11T12:00:09.858Z,4
2019-02-11T12:05:12.266Z,4
2019-02-11T12:10:14.821Z,3
2019-02-11T12:15:17.309Z,5
2019-02-11T12:20:19.618Z,5
2019-02-11T12:25:22.085Z,5
2019-02-11T12:30:24.554Z,4
2019-02-11T12:35:27.067Z,2
2019-02-11T12:40:29.461Z,2
2019-02-11T12:45:31.911Z,2
2019-02-11T12:50:34.397Z,2
2019-02-11T12:55:36.832Z,5
2019-02-11T13:00:39.338Z,2
2019-02-11T13:05:45.403Z,2
2019-02-11T13:10:44.236Z,1
2019-02-11T13:15:59.700Z,2
2019-02-11T13:20:49.223Z,2
2019-02-11T13:25:51.549Z,3
2019-02-11T13:30:54.022Z,5
2019-02-11T13:35:56.547Z,3
2019-02-11T13:40:58.941Z,5
2019-02-11T13:46:01.550Z,5
2019-02-11T13:51:03.936Z,4
2019-02-11T13:56:06.391Z,6
2019-02-11T14:01:08.781Z,6
2019-02-11T14:06:11.386Z,4
2019-02-11T14:11:13.699Z,8
2019-02-11T14:16:16.204Z,4
2019-02-11T14:21:18.601Z,1
2019-02-11T14:26:21.044Z,4
2019-02-11T14:31:23.497Z,3
2019-02-11T14:36:25.968Z,7
2019-02-11T14:41:28.440Z,5
2019-02-11T14:46:30.893Z,5
2019-02-11T14:51:33.344Z,4
2019-02-11T14:56:35.775Z,5
2019-02-11T15:01:38.299Z,8
2019-02-11T15:06:40.739Z,7
2019-02-11T15:11:43.167Z,4
2019-02-11T15:16:45.612Z,6
2019-02-11T15:21:48.080Z,5
2019-02-11T15:26:50.515Z,5
2019-02-11T15:31:52.990Z,6
2019-02-11T15:36:55.425Z,9
2019-02-11T15:41:57.913Z,8
2019-02-11T15:47:00.339Z,10
2019-02-11T15:52:02.813Z,6
2019-02-11T15:57:05.260Z,8
2019-02-11T16:02:07.733Z,4
2019-02-11T16:07:10.175Z,9
2019-02-11T16:12:12.699Z,6
2019-02-11T16:17:15.084Z,13
2019-02-11T16:22:17.605Z,5
2019-02-11T16:27:20.040Z,4
2019-02-11T16:32:22.478Z,9
2019-02-11T16:37:24.955Z,7
2019-02-11T16:42:27.533Z,10
2019-02-11T16:47:30.060Z,6
2019-02-11T16:52:32.385Z,1
2019-02-11T16:57:34.813Z,3
2019-02-11T17:02:37.264Z,4
2019-02-11T17:07:41.777Z,3
2019-02-11T17:12:42.278Z,5
2019-02-11T17:17:44.669Z,9
2019-02-11T17:22:47.100Z,6
2019-02-11T17:27:49.575Z,4
2019-02-11T17:32:52.063Z,8
2019-02-11T17:37:54.518Z,4
2019-02-11T17:42:56.963Z,13
2019-02-11T17:47:59.494Z,11
2019-02-11T17:53:06.882Z,7
2019-02-11T18:03:06.826Z,6
2019-02-11T18:08:09.285Z,8
2019-02-11T18:13:11.768Z,9
2019-02-11T18:18:14.238Z,9
2019-02-11T18:23:16.662Z,7
2019-02-11T18:28:19.148Z,9
2019-02-11T18:33:21.629Z,6
2019-02-11T18:38:24.059Z,10
2019-02-11T18:43:26.602Z,5
2019-02-11T18:48:29.038Z,10
2019-02-11T18:53:31.558Z,11
2019-02-11T18:58:33.911Z,7
2019-02-11T19:03:36.437Z,10
2019-02-11T19:08:38.852Z,8
2019-02-11T19:13:41.323Z,8
2019-02-11T19:18:43.819Z,6
2019-02-11T19:23:46.315Z,9
2019-02-11T19:28:48.690Z,8
2019-02-11T19:33:51.164Z,8
2019-02-11T19:38:53.607Z,10
2019-02-11T19:43:56.112Z,5
2019-02-11T19:48:58.559Z,5
2019-02-11T19:54:01.006Z,8
2019-02-11T19:59:03.504Z,7
2019-02-11T20:04:07.447Z,7
2019-02-11T20:09:08.392Z,12
2019-02-11T20:14:10.914Z,6
2019-02-11T20:19:13.326Z,8
2019-02-11T20:24:15.785Z,12
2019-02-11T20:29:18.271Z,8
2019-02-11T20:34:20.786Z,6
2019-02-11T20:39:23.238Z,7
2019-02-11T20:44:25.644Z,8
2019-02-11T20:49:28.131Z,9
2019-02-11T20:54:30.584Z,16
2019-02-11T20:59:33.018Z,5
2019-02-11T21:04:35.506Z,16
2019-02-11T21:09:37.960Z,12
2019-02-11T21:14:40.460Z,11
2019-02-11T21:19:42.892Z,5
2019-02-11T21:24:45.446Z,10
2019-02-11T21:29:47.852Z,13
2019-02-11T21:34:50.540Z,8
2019-02-11T21:39:52.757Z,12
2019-02-11T21:44:55.264Z,8
2019-02-11T21:49:57.700Z,8
2019-02-11T21:55:00.270Z,7
2019-02-11T22:00:02.774Z,7
2019-02-11T22:05:05.062Z,7
2019-02-11T22:10:07.570Z,6
2019-02-11T22:15:09.996Z,4
2019-02-11T22:20:12.491Z,10
2019-02-11T22:25:14.966Z,6
2019-02-11T22:30:17.437Z,10
2019-02-11T22:35:19.960Z,6
2019-02-11T22:40:22.349Z,9
2019-02-11T22:45:24.864Z,13
2019-02-11T22:50:27.242Z,4
2019-02-11T22:55:29.731Z,5
2019-02-11T23:00:32.217Z,9
2019-02-11T23:05:34.644Z,5
2019-02-11T23:10:37.105Z,9
2019-02-11T23:15:39.592Z,8
2019-02-11T23:20:42.036Z,6
2019-02-11T23:25:44.596Z,11
2019-02-11T23:30:46.954Z,16
2019-02-11T23:35:49.543Z,11
2019-02-11T23:40:51.889Z,9
2019-02-11T23:45:54.367Z,7
2019-02-11T23:51:00.394Z,8
2019-02-11T23:55:59.286Z,12
